sensor_id;sensor_type;location;lat;lon;timestamp;P1;durP1;ratioP1;P2;durP2;ratioP2
211;SDS011;16228;48.800;9.002;2023-07-09T00:02:13;5.13;;;4.63;;
211;SDS011;16228;48.800;9.002;2023-07-09T00:04:40;4.97;;;4.40;;
211;SDS011;16228;48.800;9.002;2023-07-09T00:07:11;6.13;;;4.70;;
211;SDS011;16228;48.800;9.002;2023-07-09T00:09:44;6.00;;;4.30;;
211;SDS011;16228;48.800;9.002;2023-07-09T00:12:12;5.37;;;4.87;;
211;SDS011;16228;48.800;9.002;2023-07-09T00:14:41;7.73;;;5.90;;
211;SDS011;16228;48.800;9.002;2023-07-09T00:17:09;5.43;;;4.93;;
211;SDS011;16228;48.800;9.002;2023-07-09T00:19:38;5.33;;;4.80;;
211;SDS011;16228;48.800;9.002;2023-07-09T00:22:10;6.07;;;5.23;;
211;SDS011;16228;48.800;9.002;2023-07-09T00:24:42;6.30;;;4.27;;
211;SDS011;16228;48.800;9.002;2023-07-09T00:27:10;5.97;;;5.40;;
211;SDS011;16228;48.800;9.002;2023-07-09T00:29:38;5.37;;;4.70;;
211;SDS011;16228;48.800;9.002;2023-07-09T00:32:08;7.47;;;5.17;;
211;SDS011;16228;48.800;9.002;2023-07-09T00:34:41;6.67;;;5.10;;
211;SDS011;16228;48.800;9.002;2023-07-09T00:37:14;5.90;;;5.30;;
211;SDS011;16228;48.800;9.002;2023-07-09T00:39:42;5.83;;;5.33;;
211;SDS011;16228;48.800;9.002;2023-07-09T00:42:11;5.97;;;5.27;;
211;SDS011;16228;48.800;9.002;2023-07-09T00:44:42;6.80;;;5.07;;
211;SDS011;16228;48.800;9.002;2023-07-09T00:47:15;6.00;;;5.00;;
211;SDS011;16228;48.800;9.002;2023-07-09T00:49:53;6.37;;;4.13;;
211;SDS011;16228;48.800;9.002;2023-07-09T00:52:31;6.00;;;5.50;;
211;SDS011;16228;48.800;9.002;2023-07-09T00:55:02;5.73;;;5.27;;
211;SDS011;16228;48.800;9.002;2023-07-09T00:57:33;7.10;;;5.07;;
211;SDS011;16228;48.800;9.002;2023-07-09T01:00:04;6.47;;;5.23;;
211;SDS011;16228;48.800;9.002;2023-07-09T01:02:36;4.60;;;4.20;;
211;SDS011;16228;48.800;9.002;2023-07-09T01:05:06;5.00;;;4.50;;
211;SDS011;16228;48.800;9.002;2023-07-09T01:07:33;5.17;;;4.20;;
211;SDS011;16228;48.800;9.002;2023-07-09T01:10:00;5.43;;;5.00;;
211;SDS011;16228;48.800;9.002;2023-07-09T01:12:28;6.00;;;4.90;;
211;SDS011;16228;48.800;9.002;2023-07-09T01:14:55;5.13;;;4.57;;
211;SDS011;16228;48.800;9.002;2023-07-09T01:17:25;5.00;;;3.67;;
211;SDS011;16228;48.800;9.002;2023-07-09T01:19:54;6.50;;;5.90;;
211;SDS011;16228;48.800;9.002;2023-07-09T01:22:23;7.40;;;4.70;;
211;SDS011;16228;48.800;9.002;2023-07-09T01:24:55;5.50;;;4.93;;
211;SDS011;16228;48.800;9.002;2023-07-09T01:27:27;5.87;;;5.27;;
211;SDS011;16228;48.800;9.002;2023-07-09T01:29:58;7.53;;;5.27;;
211;SDS011;16228;48.800;9.002;2023-07-09T01:32:26;6.40;;;5.27;;
211;SDS011;16228;48.800;9.002;2023-07-09T01:34:54;7.30;;;6.00;;
211;SDS011;16228;48.800;9.002;2023-07-09T01:37:25;8.07;;;5.37;;
211;SDS011;16228;48.800;9.002;2023-07-09T01:39:53;6.67;;;5.67;;
211;SDS011;16228;48.800;9.002;2023-07-09T01:42:22;6.43;;;5.40;;
211;SDS011;16228;48.800;9.002;2023-07-09T01:44:52;5.77;;;5.17;;
211;SDS011;16228;48.800;9.002;2023-07-09T01:47:20;5.70;;;5.20;;
211;SDS011;16228;48.800;9.002;2023-07-09T01:49:48;6.43;;;5.80;;
211;SDS011;16228;48.800;9.002;2023-07-09T01:52:15;5.70;;;5.20;;
211;SDS011;16228;48.800;9.002;2023-07-09T01:54:45;6.20;;;5.60;;
211;SDS011;16228;48.800;9.002;2023-07-09T01:57:15;6.50;;;5.60;;
211;SDS011;16228;48.800;9.002;2023-07-09T01:59:48;7.70;;;6.00;;
211;SDS011;16228;48.800;9.002;2023-07-09T02:02:16;6.37;;;5.70;;
211;SDS011;16228;48.800;9.002;2023-07-09T02:04:48;6.03;;;5.53;;
211;SDS011;16228;48.800;9.002;2023-07-09T02:07:16;6.47;;;5.40;;
211;SDS011;16228;48.800;9.002;2023-07-09T02:09:43;5.83;;;5.33;;
211;SDS011;16228;48.800;9.002;2023-07-09T02:12:12;6.17;;;5.57;;
211;SDS011;16228;48.800;9.002;2023-07-09T02:14:40;7.63;;;6.87;;
211;SDS011;16228;48.800;9.002;2023-07-09T02:17:09;5.70;;;5.13;;
211;SDS011;16228;48.800;9.002;2023-07-09T02:19:37;6.07;;;5.47;;
211;SDS011;16228;48.800;9.002;2023-07-09T02:22:04;6.20;;;5.13;;
211;SDS011;16228;48.800;9.002;2023-07-09T02:24:32;6.13;;;5.10;;
211;SDS011;16228;48.800;9.002;2023-07-09T02:27:01;6.23;;;5.63;;
211;SDS011;16228;48.800;9.002;2023-07-09T02:29:30;6.33;;;5.77;;
211;SDS011;16228;48.800;9.002;2023-07-09T02:31:58;7.27;;;6.67;;
211;SDS011;16228;48.800;9.002;2023-07-09T02:34:26;6.77;;;6.20;;
211;SDS011;16228;48.800;9.002;2023-07-09T02:36:54;6.50;;;5.90;;
211;SDS011;16228;48.800;9.002;2023-07-09T02:39:22;6.77;;;6.17;;
211;SDS011;16228;48.800;9.002;2023-07-09T02:41:49;7.07;;;5.93;;
211;SDS011;16228;48.800;9.002;2023-07-09T02:44:18;7.80;;;6.20;;
211;SDS011;16228;48.800;9.002;2023-07-09T02:46:45;6.13;;;5.57;;
211;SDS011;16228;48.800;9.002;2023-07-09T02:49:12;7.50;;;5.33;;
211;SDS011;16228;48.800;9.002;2023-07-09T02:51:40;6.87;;;6.17;;
211;SDS011;16228;48.800;9.002;2023-07-09T02:54:07;7.60;;;5.83;;
211;SDS011;16228;48.800;9.002;2023-07-09T02:56:34;7.07;;;6.37;;
211;SDS011;16228;48.800;9.002;2023-07-09T02:59:01;5.90;;;5.40;;
211;SDS011;16228;48.800;9.002;2023-07-09T03:01:30;6.47;;;5.83;;
211;SDS011;16228;48.800;9.002;2023-07-09T03:03:59;7.17;;;6.57;;
211;SDS011;16228;48.800;9.002;2023-07-09T03:06:27;6.17;;;5.60;;
211;SDS011;16228;48.800;9.002;2023-07-09T03:08:54;6.33;;;5.20;;
211;SDS011;16228;48.800;9.002;2023-07-09T03:11:21;6.20;;;5.43;;
211;SDS011;16228;48.800;9.002;2023-07-09T03:13:48;6.63;;;6.03;;
211;SDS011;16228;48.800;9.002;2023-07-09T03:16:15;5.90;;;5.40;;
211;SDS011;16228;48.800;9.002;2023-07-09T03:18:45;5.97;;;5.47;;
211;SDS011;16228;48.800;9.002;2023-07-09T03:21:12;6.30;;;5.80;;
211;SDS011;16228;48.800;9.002;2023-07-09T03:23:39;6.90;;;6.20;;
211;SDS011;16228;48.800;9.002;2023-07-09T03:26:08;6.00;;;5.43;;
211;SDS011;16228;48.800;9.002;2023-07-09T03:28:35;7.53;;;6.80;;
211;SDS011;16228;48.800;9.002;2023-07-09T03:31:02;6.73;;;5.97;;
211;SDS011;16228;48.800;9.002;2023-07-09T03:33:29;6.07;;;5.53;;
211;SDS011;16228;48.800;9.002;2023-07-09T03:35:57;7.03;;;6.00;;
211;SDS011;16228;48.800;9.002;2023-07-09T03:38:24;7.90;;;6.47;;
211;SDS011;16228;48.800;9.002;2023-07-09T03:40:51;7.10;;;6.40;;
211;SDS011;16228;48.800;9.002;2023-07-09T03:43:18;6.53;;;6.03;;
211;SDS011;16228;48.800;9.002;2023-07-09T03:45:46;6.30;;;5.70;;
211;SDS011;16228;48.800;9.002;2023-07-09T03:48:13;5.67;;;5.17;;
211;SDS011;16228;48.800;9.002;2023-07-09T03:50:43;7.43;;;6.73;;
211;SDS011;16228;48.800;9.002;2023-07-09T03:53:12;6.57;;;5.97;;
211;SDS011;16228;48.800;9.002;2023-07-09T03:55:40;6.97;;;6.37;;
211;SDS011;16228;48.800;9.002;2023-07-09T03:58:07;6.80;;;6.20;;
211;SDS011;16228;48.800;9.002;2023-07-09T04:00:34;6.83;;;6.07;;
211;SDS011;16228;48.800;9.002;2023-07-09T04:03:01;6.57;;;5.83;;
211;SDS011;16228;48.800;9.002;2023-07-09T04:05:28;5.97;;;5.57;;
211;SDS011;16228;48.800;9.002;2023-07-09T04:07:55;6.70;;;5.93;;
211;SDS011;16228;48.800;9.002;2023-07-09T04:10:24;6.63;;;6.03;;
211;SDS011;16228;48.800;9.002;2023-07-09T04:12:51;6.77;;;5.93;;
211;SDS011;16228;48.800;9.002;2023-07-09T04:15:18;7.13;;;6.53;;
211;SDS011;16228;48.800;9.002;2023-07-09T04:17:45;6.57;;;5.97;;
211;SDS011;16228;48.800;9.002;2023-07-09T04:20:12;6.83;;;6.23;;
211;SDS011;16228;48.800;9.002;2023-07-09T04:22:39;6.60;;;5.50;;
211;SDS011;16228;48.800;9.002;2023-07-09T04:25:07;6.77;;;6.17;;
211;SDS011;16228;48.800;9.002;2023-07-09T04:27:37;7.20;;;5.40;;
211;SDS011;16228;48.800;9.002;2023-07-09T04:30:05;5.77;;;5.27;;
211;SDS011;16228;48.800;9.002;2023-07-09T04:32:35;5.73;;;5.23;;
211;SDS011;16228;48.800;9.002;2023-07-09T04:35:02;5.57;;;5.17;;
211;SDS011;16228;48.800;9.002;2023-07-09T04:37:30;5.50;;;5.00;;
211;SDS011;16228;48.800;9.002;2023-07-09T04:39:57;6.37;;;5.77;;
211;SDS011;16228;48.800;9.002;2023-07-09T04:42:24;6.57;;;4.77;;
211;SDS011;16228;48.800;9.002;2023-07-09T04:44:53;5.43;;;4.90;;
211;SDS011;16228;48.800;9.002;2023-07-09T04:47:20;5.13;;;4.63;;
211;SDS011;16228;48.800;9.002;2023-07-09T04:49:47;5.23;;;4.73;;
211;SDS011;16228;48.800;9.002;2023-07-09T04:52:13;4.73;;;4.23;;
211;SDS011;16228;48.800;9.002;2023-07-09T04:54:40;4.77;;;4.37;;
211;SDS011;16228;48.800;9.002;2023-07-09T04:57:09;5.80;;;4.20;;
211;SDS011;16228;48.800;9.002;2023-07-09T04:59:37;5.17;;;4.30;;
211;SDS011;16228;48.800;9.002;2023-07-09T05:02:06;4.50;;;4.07;;
211;SDS011;16228;48.800;9.002;2023-07-09T05:04:33;4.93;;;4.10;;
211;SDS011;16228;48.800;9.002;2023-07-09T05:07:00;5.50;;;3.90;;
211;SDS011;16228;48.800;9.002;2023-07-09T05:09:27;5.83;;;3.93;;
211;SDS011;16228;48.800;9.002;2023-07-09T05:11:54;7.37;;;4.53;;
211;SDS011;16228;48.800;9.002;2023-07-09T05:14:21;5.80;;;4.17;;
211;SDS011;16228;48.800;9.002;2023-07-09T05:16:48;5.80;;;4.13;;
211;SDS011;16228;48.800;9.002;2023-07-09T05:19:16;6.17;;;4.33;;
211;SDS011;16228;48.800;9.002;2023-07-09T05:21:43;5.03;;;4.13;;
211;SDS011;16228;48.800;9.002;2023-07-09T05:24:10;4.10;;;3.70;;
211;SDS011;16228;48.800;9.002;2023-07-09T05:26:37;5.13;;;3.87;;
211;SDS011;16228;48.800;9.002;2023-07-09T05:29:05;5.77;;;3.70;;
211;SDS011;16228;48.800;9.002;2023-07-09T05:31:32;5.77;;;4.50;;
211;SDS011;16228;48.800;9.002;2023-07-09T05:34:01;5.77;;;4.80;;
211;SDS011;16228;48.800;9.002;2023-07-09T05:36:30;5.20;;;4.13;;
211;SDS011;16228;48.800;9.002;2023-07-09T05:38:57;6.70;;;4.07;;
211;SDS011;16228;48.800;9.002;2023-07-09T05:41:24;6.43;;;3.83;;
211;SDS011;16228;48.800;9.002;2023-07-09T05:43:51;6.03;;;4.13;;
211;SDS011;16228;48.800;9.002;2023-07-09T05:46:18;4.10;;;3.60;;
211;SDS011;16228;48.800;9.002;2023-07-09T05:48:48;4.73;;;3.80;;
211;SDS011;16228;48.800;9.002;2023-07-09T05:51:15;6.43;;;4.33;;
211;SDS011;16228;48.800;9.002;2023-07-09T05:53:43;4.67;;;3.60;;
211;SDS011;16228;48.800;9.002;2023-07-09T05:56:10;4.30;;;3.90;;
211;SDS011;16228;48.800;9.002;2023-07-09T05:58:37;5.57;;;3.93;;
211;SDS011;16228;48.800;9.002;2023-07-09T06:01:05;5.43;;;4.10;;
211;SDS011;16228;48.800;9.002;2023-07-09T06:03:32;6.47;;;3.47;;
211;SDS011;16228;48.800;9.002;2023-07-09T06:05:59;4.87;;;3.63;;
211;SDS011;16228;48.800;9.002;2023-07-09T06:08:26;5.47;;;3.77;;
211;SDS011;16228;48.800;9.002;2023-07-09T06:10:56;4.17;;;3.73;;
211;SDS011;16228;48.800;9.002;2023-07-09T06:13:24;4.13;;;3.73;;
211;SDS011;16228;48.800;9.002;2023-07-09T06:15:53;4.30;;;3.70;;
211;SDS011;16228;48.800;9.002;2023-07-09T06:18:21;5.27;;;3.87;;
211;SDS011;16228;48.800;9.002;2023-07-09T06:20:49;5.80;;;3.53;;
211;SDS011;16228;48.800;9.002;2023-07-09T06:23:17;5.37;;;4.03;;
211;SDS011;16228;48.800;9.002;2023-07-09T06:25:44;4.50;;;3.67;;
211;SDS011;16228;48.800;9.002;2023-07-09T06:28:15;5.27;;;3.80;;
211;SDS011;16228;48.800;9.002;2023-07-09T06:30:42;5.57;;;3.77;;
211;SDS011;16228;48.800;9.002;2023-07-09T06:33:09;4.63;;;3.60;;
211;SDS011;16228;48.800;9.002;2023-07-09T06:35:38;4.63;;;3.73;;
211;SDS011;16228;48.800;9.002;2023-07-09T06:38:05;4.20;;;3.63;;
211;SDS011;16228;48.800;9.002;2023-07-09T06:40:32;5.70;;;4.10;;
211;SDS011;16228;48.800;9.002;2023-07-09T06:43:00;4.80;;;3.73;;
211;SDS011;16228;48.800;9.002;2023-07-09T06:45:28;3.93;;;3.53;;
211;SDS011;16228;48.800;9.002;2023-07-09T06:47:57;4.40;;;4.00;;
211;SDS011;16228;48.800;9.002;2023-07-09T06:50:24;3.63;;;3.13;;
211;SDS011;16228;48.800;9.002;2023-07-09T06:52:51;4.40;;;3.50;;
211;SDS011;16228;48.800;9.002;2023-07-09T06:55:17;4.07;;;3.53;;
211;SDS011;16228;48.800;9.002;2023-07-09T06:57:45;4.83;;;3.77;;
211;SDS011;16228;48.800;9.002;2023-07-09T07:00:12;3.97;;;3.53;;
211;SDS011;16228;48.800;9.002;2023-07-09T07:02:41;4.15;;;3.20;;
211;SDS011;16228;48.800;9.002;2023-07-09T07:05:08;3.38;;;3.08;;
211;SDS011;16228;48.800;9.002;2023-07-09T07:07:35;4.97;;;4.43;;
211;SDS011;16228;48.800;9.002;2023-07-09T07:10:02;4.60;;;3.33;;
211;SDS011;16228;48.800;9.002;2023-07-09T07:12:40;6.93;;;3.60;;
211;SDS011;16228;48.800;9.002;2023-07-09T07:15:08;4.65;;;3.40;;
211;SDS011;16228;48.800;9.002;2023-07-09T07:17:36;4.57;;;3.45;;
211;SDS011;16228;48.800;9.002;2023-07-09T07:20:05;3.78;;;3.47;;
211;SDS011;16228;48.800;9.002;2023-07-09T07:22:32;4.20;;;3.35;;
211;SDS011;16228;48.800;9.002;2023-07-09T07:24:59;4.30;;;3.70;;
211;SDS011;16228;48.800;9.002;2023-07-09T07:27:26;4.03;;;3.63;;
211;SDS011;16228;48.800;9.002;2023-07-09T07:29:53;3.95;;;3.50;;
211;SDS011;16228;48.800;9.002;2023-07-09T07:32:20;4.88;;;3.95;;
211;SDS011;16228;48.800;9.002;2023-07-09T07:34:47;4.65;;;3.70;;
211;SDS011;16228;48.800;9.002;2023-07-09T07:37:17;2.83;;;2.63;;
211;SDS011;16228;48.800;9.002;2023-07-09T07:39:46;6.13;;;3.25;;
211;SDS011;16228;48.800;9.002;2023-07-09T07:42:12;3.83;;;2.97;;
211;SDS011;16228;48.800;9.002;2023-07-09T07:44:40;3.22;;;3.00;;
211;SDS011;16228;48.800;9.002;2023-07-09T07:47:06;3.60;;;3.13;;
211;SDS011;16228;48.800;9.002;2023-07-09T07:49:34;4.63;;;3.20;;
211;SDS011;16228;48.800;9.002;2023-07-09T07:52:00;3.28;;;2.83;;
211;SDS011;16228;48.800;9.002;2023-07-09T07:54:30;4.03;;;3.28;;
211;SDS011;16228;48.800;9.002;2023-07-09T07:56:57;3.78;;;3.17;;
211;SDS011;16228;48.800;9.002;2023-07-09T07:59:24;4.72;;;3.45;;
211;SDS011;16228;48.800;9.002;2023-07-09T08:01:51;3.88;;;2.97;;
211;SDS011;16228;48.800;9.002;2023-07-09T08:04:18;4.68;;;3.42;;
211;SDS011;16228;48.800;9.002;2023-07-09T08:06:45;5.28;;;3.30;;
211;SDS011;16228;48.800;9.002;2023-07-09T08:09:12;3.70;;;3.30;;
211;SDS011;16228;48.800;9.002;2023-07-09T08:11:41;4.50;;;3.25;;
211;SDS011;16228;48.800;9.002;2023-07-09T08:14:07;3.30;;;2.65;;
211;SDS011;16228;48.800;9.002;2023-07-09T08:16:35;4.60;;;2.92;;
211;SDS011;16228;48.800;9.002;2023-07-09T08:19:02;4.05;;;2.70;;
211;SDS011;16228;48.800;9.002;2023-07-09T08:21:29;4.38;;;3.33;;
211;SDS011;16228;48.800;9.002;2023-07-09T08:23:56;3.15;;;2.85;;
211;SDS011;16228;48.800;9.002;2023-07-09T08:26:23;3.70;;;2.83;;
211;SDS011;16228;48.800;9.002;2023-07-09T08:28:51;4.43;;;2.92;;
211;SDS011;16228;48.800;9.002;2023-07-09T08:31:20;3.30;;;3.00;;
211;SDS011;16228;48.800;9.002;2023-07-09T08:33:47;3.35;;;2.75;;
211;SDS011;16228;48.800;9.002;2023-07-09T08:36:14;4.28;;;2.90;;
211;SDS011;16228;48.800;9.002;2023-07-09T08:38:41;7.78;;;4.03;;
211;SDS011;16228;48.800;9.002;2023-07-09T08:41:09;4.53;;;3.03;;
211;SDS011;16228;48.800;9.002;2023-07-09T08:43:53;4.70;;;3.17;;
211;SDS011;16228;48.800;9.002;2023-07-09T08:46:27;3.35;;;3.03;;
211;SDS011;16228;48.800;9.002;2023-07-09T08:49:00;3.50;;;2.50;;
211;SDS011;16228;48.800;9.002;2023-07-09T08:51:32;2.67;;;2.47;;
211;SDS011;16228;48.800;9.002;2023-07-09T08:54:04;3.25;;;2.95;;
211;SDS011;16228;48.800;9.002;2023-07-09T08:56:39;3.70;;;2.88;;
211;SDS011;16228;48.800;9.002;2023-07-09T08:59:08;3.88;;;2.90;;
211;SDS011;16228;48.800;9.002;2023-07-09T09:01:42;2.78;;;2.58;;
211;SDS011;16228;48.800;9.002;2023-07-09T09:04:18;4.30;;;2.90;;
211;SDS011;16228;48.800;9.002;2023-07-09T09:06:50;3.20;;;2.90;;
211;SDS011;16228;48.800;9.002;2023-07-09T09:09:25;2.90;;;2.70;;
211;SDS011;16228;48.800;9.002;2023-07-09T09:11:57;3.92;;;2.90;;
211;SDS011;16228;48.800;9.002;2023-07-09T09:14:37;2.97;;;2.78;;
211;SDS011;16228;48.800;9.002;2023-07-09T09:17:09;4.07;;;2.83;;
211;SDS011;16228;48.800;9.002;2023-07-09T09:19:43;3.20;;;3.00;;
211;SDS011;16228;48.800;9.002;2023-07-09T09:22:13;3.30;;;3.00;;
211;SDS011;16228;48.800;9.002;2023-07-09T09:24:49;3.15;;;2.85;;
211;SDS011;16228;48.800;9.002;2023-07-09T09:27:21;3.50;;;3.22;;
211;SDS011;16228;48.800;9.002;2023-07-09T09:29:50;3.25;;;2.92;;
211;SDS011;16228;48.800;9.002;2023-07-09T09:32:19;3.25;;;2.95;;
211;SDS011;16228;48.800;9.002;2023-07-09T09:34:50;5.97;;;3.28;;
211;SDS011;16228;48.800;9.002;2023-07-09T09:37:23;5.03;;;3.30;;
211;SDS011;16228;48.800;9.002;2023-07-09T09:39:52;2.72;;;2.53;;
211;SDS011;16228;48.800;9.002;2023-07-09T09:42:20;4.22;;;2.80;;
211;SDS011;16228;48.800;9.002;2023-07-09T09:44:53;4.47;;;3.15;;
211;SDS011;16228;48.800;9.002;2023-07-09T09:47:21;5.50;;;2.88;;
211;SDS011;16228;48.800;9.002;2023-07-09T09:49:52;3.28;;;2.95;;
211;SDS011;16228;48.800;9.002;2023-07-09T09:52:19;3.40;;;2.83;;
211;SDS011;16228;48.800;9.002;2023-07-09T09:54:49;3.65;;;3.03;;
211;SDS011;16228;48.800;9.002;2023-07-09T09:57:20;3.15;;;2.92;;
211;SDS011;16228;48.800;9.002;2023-07-09T09:59:48;4.50;;;3.25;;
211;SDS011;16228;48.800;9.002;2023-07-09T10:02:20;3.58;;;3.20;;
211;SDS011;16228;48.800;9.002;2023-07-09T10:04:48;4.95;;;3.47;;
211;SDS011;16228;48.800;9.002;2023-07-09T10:07:18;3.20;;;2.90;;
211;SDS011;16228;48.800;9.002;2023-07-09T10:09:50;4.57;;;3.13;;
211;SDS011;16228;48.800;9.002;2023-07-09T10:12:33;5.85;;;3.17;;
211;SDS011;16228;48.800;9.002;2023-07-09T10:15:16;3.83;;;2.97;;
211;SDS011;16228;48.800;9.002;2023-07-09T10:17:53;3.28;;;3.08;;
211;SDS011;16228;48.800;9.002;2023-07-09T10:20:24;4.10;;;3.15;;
211;SDS011;16228;48.800;9.002;2023-07-09T10:22:57;5.60;;;2.95;;
211;SDS011;16228;48.800;9.002;2023-07-09T10:25:31;4.93;;;3.10;;
211;SDS011;16228;48.800;9.002;2023-07-09T10:31:14;3.10;;;2.80;;
211;SDS011;16228;48.800;9.002;2023-07-09T10:33:49;4.40;;;3.60;;
211;SDS011;16228;48.800;9.002;2023-07-09T10:36:26;5.30;;;3.35;;
211;SDS011;16228;48.800;9.002;2023-07-09T10:39:05;3.20;;;2.90;;
211;SDS011;16228;48.800;9.002;2023-07-09T10:41:37;3.42;;;3.13;;
211;SDS011;16228;48.800;9.002;2023-07-09T10:44:06;3.80;;;3.50;;
211;SDS011;16228;48.800;9.002;2023-07-09T10:46:41;3.30;;;2.70;;
211;SDS011;16228;48.800;9.002;2023-07-09T10:49:13;4.07;;;3.10;;
211;SDS011;16228;48.800;9.002;2023-07-09T10:51:43;3.28;;;2.97;;
211;SDS011;16228;48.800;9.002;2023-07-09T10:54:15;3.95;;;3.25;;
211;SDS011;16228;48.800;9.002;2023-07-09T10:56:51;3.35;;;3.03;;
211;SDS011;16228;48.800;9.002;2023-07-09T10:59:24;4.10;;;3.13;;
211;SDS011;16228;48.800;9.002;2023-07-09T11:01:57;3.17;;;2.95;;
211;SDS011;16228;48.800;9.002;2023-07-09T11:04:43;4.25;;;2.80;;
211;SDS011;16228;48.800;9.002;2023-07-09T11:07:15;3.78;;;3.45;;
211;SDS011;16228;48.800;9.002;2023-07-09T11:09:47;3.78;;;3.33;;
211;SDS011;16228;48.800;9.002;2023-07-09T11:12:21;3.40;;;3.15;;
211;SDS011;16228;48.800;9.002;2023-07-09T11:14:56;5.05;;;3.58;;
211;SDS011;16228;48.800;9.002;2023-07-09T11:17:29;3.88;;;3.58;;
211;SDS011;16228;48.800;9.002;2023-07-09T11:19:59;4.07;;;3.67;;
211;SDS011;16228;48.800;9.002;2023-07-09T11:22:36;3.97;;;3.67;;
211;SDS011;16228;48.800;9.002;2023-07-09T11:25:08;4.25;;;3.67;;
211;SDS011;16228;48.800;9.002;2023-07-09T11:27:45;6.38;;;4.18;;
211;SDS011;16228;48.800;9.002;2023-07-09T11:30:19;4.10;;;3.70;;
211;SDS011;16228;48.800;9.002;2023-07-09T11:32:53;3.50;;;3.20;;
211;SDS011;16228;48.800;9.002;2023-07-09T11:35:23;4.07;;;3.70;;
211;SDS011;16228;48.800;9.002;2023-07-09T11:37:52;4.68;;;3.38;;
211;SDS011;16228;48.800;9.002;2023-07-09T11:40:20;6.03;;;4.00;;
211;SDS011;16228;48.800;9.002;2023-07-09T11:42:53;4.50;;;3.53;;
211;SDS011;16228;48.800;9.002;2023-07-09T11:45:22;3.88;;;3.42;;
211;SDS011;16228;48.800;9.002;2023-07-09T11:47:55;4.28;;;3.97;;
211;SDS011;16228;48.800;9.002;2023-07-09T11:50:30;4.03;;;3.55;;
211;SDS011;16228;48.800;9.002;2023-07-09T11:53:01;4.68;;;3.75;;
211;SDS011;16228;48.800;9.002;2023-07-09T11:55:35;3.97;;;3.65;;
211;SDS011;16228;48.800;9.002;2023-07-09T11:58:07;4.40;;;4.00;;
211;SDS011;16228;48.800;9.002;2023-07-09T12:00:37;5.25;;;3.58;;
211;SDS011;16228;48.800;9.002;2023-07-09T12:03:09;6.05;;;3.78;;
211;SDS011;16228;48.800;9.002;2023-07-09T12:05:48;5.40;;;3.58;;
211;SDS011;16228;48.800;9.002;2023-07-09T12:08:17;5.10;;;4.20;;
211;SDS011;16228;48.800;9.002;2023-07-09T12:10:49;3.58;;;3.28;;
211;SDS011;16228;48.800;9.002;2023-07-09T12:13:16;6.45;;;3.65;;
211;SDS011;16228;48.800;9.002;2023-07-09T12:15:43;4.32;;;2.97;;
211;SDS011;16228;48.800;9.002;2023-07-09T12:18:11;4.07;;;3.67;;
211;SDS011;16228;48.800;9.002;2023-07-09T12:20:40;4.88;;;3.67;;
211;SDS011;16228;48.800;9.002;2023-07-09T12:23:10;5.63;;;4.15;;
211;SDS011;16228;48.800;9.002;2023-07-09T12:25:46;4.38;;;3.58;;
211;SDS011;16228;48.800;9.002;2023-07-09T12:28:14;3.10;;;2.80;;
211;SDS011;16228;48.800;9.002;2023-07-09T12:30:44;5.22;;;3.33;;
211;SDS011;16228;48.800;9.002;2023-07-09T12:33:14;3.85;;;3.47;;
211;SDS011;16228;48.800;9.002;2023-07-09T12:35:43;3.75;;;3.40;;
211;SDS011;16228;48.800;9.002;2023-07-09T12:38:15;4.13;;;3.35;;
211;SDS011;16228;48.800;9.002;2023-07-09T12:40:45;4.28;;;3.42;;
211;SDS011;16228;48.800;9.002;2023-07-09T12:43:13;4.00;;;3.60;;
211;SDS011;16228;48.800;9.002;2023-07-09T12:45:43;3.97;;;3.42;;
211;SDS011;16228;48.800;9.002;2023-07-09T12:48:10;4.53;;;4.03;;
211;SDS011;16228;48.800;9.002;2023-07-09T12:50:40;6.35;;;3.97;;
211;SDS011;16228;48.800;9.002;2023-07-09T12:53:11;5.25;;;3.63;;
211;SDS011;16228;48.800;9.002;2023-07-09T12:55:41;4.50;;;3.58;;
211;SDS011;16228;48.800;9.002;2023-07-09T12:58:17;5.07;;;3.78;;
211;SDS011;16228;48.800;9.002;2023-07-09T13:00:49;3.95;;;3.55;;
211;SDS011;16228;48.800;9.002;2023-07-09T13:03:19;5.15;;;3.53;;
211;SDS011;16228;48.800;9.002;2023-07-09T13:05:51;4.05;;;3.40;;
211;SDS011;16228;48.800;9.002;2023-07-09T13:08:19;3.70;;;3.33;;
211;SDS011;16228;48.800;9.002;2023-07-09T13:10:46;4.00;;;2.97;;
211;SDS011;16228;48.800;9.002;2023-07-09T13:13:16;5.70;;;3.47;;
211;SDS011;16228;48.800;9.002;2023-07-09T13:15:47;3.28;;;2.92;;
211;SDS011;16228;48.800;9.002;2023-07-09T13:18:15;3.80;;;2.83;;
211;SDS011;16228;48.800;9.002;2023-07-09T13:20:44;5.63;;;3.13;;
211;SDS011;16228;48.800;9.002;2023-07-09T13:23:14;3.50;;;2.75;;
211;SDS011;16228;48.800;9.002;2023-07-09T13:25:43;5.03;;;3.13;;
211;SDS011;16228;48.800;9.002;2023-07-09T13:28:17;4.43;;;3.42;;
211;SDS011;16228;48.800;9.002;2023-07-09T13:30:45;5.38;;;3.67;;
211;SDS011;16228;48.800;9.002;2023-07-09T13:33:13;4.97;;;3.70;;
211;SDS011;16228;48.800;9.002;2023-07-09T13:35:40;4.25;;;3.85;;
211;SDS011;16228;48.800;9.002;2023-07-09T13:38:13;4.22;;;3.75;;
211;SDS011;16228;48.800;9.002;2023-07-09T13:40:41;3.67;;;3.20;;
211;SDS011;16228;48.800;9.002;2023-07-09T13:43:11;5.07;;;3.60;;
211;SDS011;16228;48.800;9.002;2023-07-09T13:45:39;5.53;;;3.85;;
211;SDS011;16228;48.800;9.002;2023-07-09T13:48:09;4.35;;;3.75;;
211;SDS011;16228;48.800;9.002;2023-07-09T13:50:41;4.75;;;3.50;;
211;SDS011;16228;48.800;9.002;2023-07-09T13:53:14;5.05;;;3.85;;
211;SDS011;16228;48.800;9.002;2023-07-09T13:55:43;4.88;;;3.47;;
211;SDS011;16228;48.800;9.002;2023-07-09T13:58:11;5.65;;;3.22;;
211;SDS011;16228;48.800;9.002;2023-07-09T14:00:39;4.82;;;3.88;;
211;SDS011;16228;48.800;9.002;2023-07-09T14:03:10;4.75;;;3.50;;
211;SDS011;16228;48.800;9.002;2023-07-09T14:05:41;5.18;;;3.53;;
211;SDS011;16228;48.800;9.002;2023-07-09T14:08:08;4.25;;;3.33;;
211;SDS011;16228;48.800;9.002;2023-07-09T14:10:37;5.70;;;4.03;;
211;SDS011;16228;48.800;9.002;2023-07-09T14:13:04;4.57;;;3.30;;
211;SDS011;16228;48.800;9.002;2023-07-09T14:15:32;4.45;;;3.08;;
211;SDS011;16228;48.800;9.002;2023-07-09T14:17:59;5.13;;;4.03;;
211;SDS011;16228;48.800;9.002;2023-07-09T14:20:25;7.38;;;3.13;;
211;SDS011;16228;48.800;9.002;2023-07-09T14:22:52;4.10;;;3.70;;
211;SDS011;16228;48.800;9.002;2023-07-09T14:25:21;4.10;;;3.58;;
211;SDS011;16228;48.800;9.002;2023-07-09T14:27:52;4.85;;;3.28;;
211;SDS011;16228;48.800;9.002;2023-07-09T14:30:21;4.00;;;3.28;;
211;SDS011;16228;48.800;9.002;2023-07-09T14:32:50;6.55;;;3.58;;
211;SDS011;16228;48.800;9.002;2023-07-09T14:35:18;3.85;;;3.55;;
211;SDS011;16228;48.800;9.002;2023-07-09T14:37:48;4.60;;;4.20;;
211;SDS011;16228;48.800;9.002;2023-07-09T14:40:17;4.70;;;2.97;;
211;SDS011;16228;48.800;9.002;2023-07-09T14:42:46;4.03;;;3.40;;
211;SDS011;16228;48.800;9.002;2023-07-09T14:45:19;4.57;;;4.18;;
211;SDS011;16228;48.800;9.002;2023-07-09T14:47:49;6.22;;;5.32;;
211;SDS011;16228;48.800;9.002;2023-07-09T14:50:16;4.38;;;3.42;;
211;SDS011;16228;48.800;9.002;2023-07-09T14:52:45;5.05;;;4.07;;
211;SDS011;16228;48.800;9.002;2023-07-09T14:55:13;5.40;;;3.80;;
211;SDS011;16228;48.800;9.002;2023-07-09T14:57:42;7.18;;;4.30;;
211;SDS011;16228;48.800;9.002;2023-07-09T15:00:12;5.38;;;3.72;;
211;SDS011;16228;48.800;9.002;2023-07-09T15:02:42;4.93;;;3.05;;
211;SDS011;16228;48.800;9.002;2023-07-09T15:05:13;4.38;;;3.80;;
211;SDS011;16228;48.800;9.002;2023-07-09T15:07:42;5.30;;;4.00;;
211;SDS011;16228;48.800;9.002;2023-07-09T15:10:12;4.28;;;3.45;;
211;SDS011;16228;48.800;9.002;2023-07-09T15:12:40;4.85;;;3.00;;
211;SDS011;16228;48.800;9.002;2023-07-09T15:15:12;4.10;;;3.50;;
211;SDS011;16228;48.800;9.002;2023-07-09T15:17:46;5.68;;;4.13;;
211;SDS011;16228;48.800;9.002;2023-07-09T15:20:13;4.40;;;3.17;;
211;SDS011;16228;48.800;9.002;2023-07-09T15:22:42;3.63;;;3.03;;
211;SDS011;16228;48.800;9.002;2023-07-09T15:25:12;5.45;;;3.88;;
211;SDS011;16228;48.800;9.002;2023-07-09T15:27:40;5.85;;;3.97;;
211;SDS011;16228;48.800;9.002;2023-07-09T15:30:12;4.45;;;3.05;;
211;SDS011;16228;48.800;9.002;2023-07-09T15:32:39;3.30;;;2.95;;